Time;durP1;ratioP1;P1;durP2;ratioP2;P2;SDS_P1;SDS_P2;PMS_P1;PMS_P2;Temp;Humidity;BMP_temperature;BMP_pressure;BME280_temperature;BME280_humidity;BME280_pressure;Samples;Min_cycle;Max_cycle;Signal;HPM_P1;HPM_P2
2023/11/22 00:01:49;;;;;;;10.20;8.25;;;4.70;99.90;;;;;;5030136;28;20175;-83
2023/11/22 00:04:15;;;;;;;11.57;6.85;;;4.70;99.90;;;;;;5027899;28;20447;-81
2023/11/22 00:06:41;;;;;;;11.43;8.43;;;4.70;99.90;;;;;;5025477;28;20477;-82
2023/11/22 00:09:07;;;;;;;11.48;7.90;;;4.70;99.90;;;;;;5047439;28;20124;-81
2023/11/22 00:11:33;;;;;;;12.63;7.28;;;4.70;99.90;;;;;;5031352;28;20120;-81
2023/11/22 00:13:58;;;;;;;12.52;7.93;;;4.70;99.90;;;;;;5030029;28;20451;-82
2023/11/22 00:16:24;;;;;;;12.10;8.55;;;4.70;99.90;;;;;;5029000;28;20392;-82
2023/11/22 00:18:49;;;;;;;11.45;8.07;;;4.60;99.90;;;;;;5028517;28;20504;-81
2023/11/22 00:21:15;;;;;;;11.07;7.82;;;4.70;99.90;;;;;;5009839;28;20063;-81
2023/11/22 00:23:40;;;;;;;15.27;8.93;;;4.70;99.90;;;;;;5043488;28;20064;-82
2023/11/22 00:26:06;;;;;;;11.40;8.23;;;4.60;99.90;;;;;;5032512;28;20446;-80
2023/11/22 00:28:32;;;;;;;14.23;8.18;;;4.70;99.90;;;;;;5023814;28;20088;-82
2023/11/22 00:30:58;;;;;;;11.90;7.90;;;4.70;99.90;;;;;;5030268;28;20040;-81
2023/11/22 00:33:23;;;;;;;12.52;8.52;;;4.70;99.90;;;;;;5014251;28;20083;-82
2023/11/22 00:35:50;;;;;;;11.40;7.80;;;4.60;99.90;;;;;;5012969;28;20147;-82
2023/11/22 00:38:16;;;;;;;10.93;7.75;;;4.60;99.90;;;;;;5026751;28;20033;-82
2023/11/22 00:40:42;;;;;;;12.02;7.65;;;4.60;99.90;;;;;;5043511;28;20032;-79
2023/11/22 00:43:08;;;;;;;11.80;7.93;;;4.60;99.90;;;;;;5014450;28;20083;-79
2023/11/22 00:45:33;;;;;;;14.35;7.68;;;4.60;99.90;;;;;;5030091;28;20051;-78
2023/11/22 00:47:59;;;;;;;11.10;7.65;;;4.60;99.90;;;;;;5014487;28;20060;-79
2023/11/22 00:50:25;;;;;;;12.95;7.90;;;4.60;99.90;;;;;;5011540;28;20082;-79
2023/11/22 00:52:50;;;;;;;12.50;8.85;;;4.60;99.90;;;;;;5024964;28;20073;-79
2023/11/22 00:55:16;;;;;;;14.05;8.98;;;4.50;99.90;;;;;;5025797;28;20075;-78
2023/11/22 00:57:42;;;;;;;13.60;8.38;;;4.40;99.90;;;;;;5029433;28;20029;-78
2023/11/22 01:00:09;;;;;;;10.63;6.80;;;4.50;99.90;;;;;;5046940;28;20362;-79
2023/11/22 01:02:37;;;;;;;14.77;8.95;;;4.50;99.90;;;;;;5028610;28;20094;-79
2023/11/22 01:05:09;;;;;;;14.50;9.38;;;4.60;99.90;;;;;;5032449;28;20396;-79
2023/11/22 01:07:35;;;;;;;18.83;10.77;;;4.50;99.90;;;;;;5021934;28;20032;-78
2023/11/22 01:10:01;;;;;;;17.67;9.52;;;4.50;99.90;;;;;;5016639;28;20021;-79
2023/11/22 01:12:26;;;;;;;14.02;8.48;;;4.50;99.90;;;;;;5029453;28;20400;-79
2023/11/22 01:14:52;;;;;;;13.23;8.82;;;4.40;99.90;;;;;;5013500;28;20021;-79
2023/11/22 01:17:17;;;;;;;12.70;8.43;;;4.40;99.90;;;;;;5026706;28;20417;-79
2023/11/22 01:19:43;;;;;;;11.88;7.80;;;4.30;99.90;;;;;;5034726;28;20032;-79
2023/11/22 01:22:08;;;;;;;12.15;8.60;;;4.30;99.90;;;;;;5026431;28;20033;-79
2023/11/22 01:24:34;;;;;;;16.67;9.73;;;4.20;99.90;;;;;;5046053;28;20048;-78
2023/11/22 01:27:00;;;;;;;12.88;8.60;;;4.20;99.90;;;;;;5043182;28;20496;-78
2023/11/22 01:29:26;;;;;;;11.88;7.93;;;4.10;99.90;;;;;;5015167;28;20028;-78
2023/11/22 01:31:52;;;;;;;12.50;9.00;;;4.20;99.90;;;;;;5042645;28;20508;-78
2023/11/22 01:34:17;;;;;;;13.23;10.00;;;4.10;99.90;;;;;;5028884;28;20129;-79
2023/11/22 01:36:43;;;;;;;14.75;9.88;;;4.10;99.90;;;;;;5029587;28;20041;-78
2023/11/22 01:39:12;;;;;;;13.70;8.63;;;4.10;99.90;;;;;;5025627;28;20060;-79
2023/11/22 01:41:37;;;;;;;19.15;11.43;;;4.10;99.90;;;;;;5032563;28;20029;-79
2023/11/22 01:44:03;;;;;;;16.00;10.63;;;4.10;99.90;;;;;;5013578;28;20025;-78
2023/11/22 01:46:29;;;;;;;16.88;9.80;;;4.10;99.90;;;;;;5014294;28;20044;-79
2023/11/22 01:48:54;;;;;;;14.23;9.27;;;4.10;99.90;;;;;;5029827;28;20682;-78
2023/11/22 01:51:24;;;;;;;18.25;10.90;;;4.10;99.90;;;;;;5029578;28;20033;-81
2023/11/22 01:53:53;;;;;;;17.73;10.75;;;4.20;99.90;;;;;;5011570;28;20033;-81
2023/11/22 01:56:19;;;;;;;16.90;11.13;;;4.20;99.90;;;;;;5045479;28;20298;-81
2023/11/22 01:58:45;;;;;;;19.30;11.82;;;4.20;99.90;;;;;;5011058;28;20052;-81
2023/11/22 02:01:11;;;;;;;14.52;9.60;;;4.20;99.90;;;;;;5013299;28;20063;-81
2023/11/22 02:03:37;;;;;;;16.30;10.90;;;4.20;99.90;;;;;;5031396;28;20183;-81
2023/11/22 02:06:03;;;;;;;17.65;10.65;;;4.10;99.90;;;;;;5026735;28;20525;-81
2023/11/22 02:08:28;;;;;;;21.02;10.68;;;4.10;99.90;;;;;;5043410;28;20392;-81
2023/11/22 02:11:02;;;;;;;14.48;9.32;;;4.00;99.90;;;;;;5013325;28;20082;-81
2023/11/22 02:13:27;;;;;;;14.50;10.52;;;4.00;99.90;;;;;;5012536;28;20495;-80
2023/11/22 02:15:55;;;;;;;14.48;10.15;;;4.00;99.90;;;;;;5042499;28;20035;-81
2023/11/22 02:18:30;;;;;;;17.23;10.80;;;4.00;99.90;;;;;;5027786;28;20066;-81
2023/11/22 02:20:56;;;;;;;16.02;10.15;;;4.00;99.90;;;;;;5015227;28;20029;-81
2023/11/22 02:23:22;;;;;;;12.95;9.43;;;3.90;99.90;;;;;;5012161;28;20397;-81
2023/11/22 02:25:47;;;;;;;14.90;9.68;;;4.00;99.90;;;;;;5013146;28;20454;-81
2023/11/22 02:28:13;;;;;;;17.67;11.07;;;3.90;99.90;;;;;;5030195;28;20029;-81
2023/11/22 02:30:39;;;;;;;15.57;11.27;;;3.90;99.90;;;;;;5044875;28;20033;-80
2023/11/22 02:33:04;;;;;;;18.63;9.52;;;3.90;99.90;;;;;;5009825;28;20025;-80
2023/11/22 02:35:31;;;;;;;19.50;11.00;;;3.90;99.90;;;;;;5014029;28;20025;-81
2023/11/22 02:37:59;;;;;;;20.33;11.70;;;3.90;99.90;;;;;;5013469;28;20075;-81
2023/11/22 02:40:24;;;;;;;19.92;12.02;;;3.90;99.90;;;;;;5029834;28;20047;-81
2023/11/22 02:42:51;;;;;;;16.20;10.88;;;3.90;99.90;;;;;;5028464;28;20100;-81
2023/11/22 02:45:17;;;;;;;19.80;12.18;;;3.80;99.90;;;;;;5029843;28;20048;-81
2023/11/22 02:47:44;;;;;;;18.17;12.30;;;3.70;99.90;;;;;;5028173;28;20037;-80
2023/11/22 02:50:11;;;;;;;20.33;12.25;;;3.70;99.90;;;;;;5030592;28;20029;-81
2023/11/22 02:52:37;;;;;;;20.52;11.57;;;3.60;99.90;;;;;;5028721;28;20473;-80
2023/11/22 02:55:04;;;;;;;21.88;12.57;;;3.60;99.90;;;;;;5037329;28;20029;-80
2023/11/22 02:57:31;;;;;;;23.02;15.13;;;3.50;99.90;;;;;;5030740;28;20074;-80
2023/11/22 02:59:56;;;;;;;23.38;13.43;;;3.50;99.90;;;;;;5030550;28;20037;-79
2023/11/22 03:02:22;;;;;;;24.98;13.50;;;3.50;99.90;;;;;;5010073;28;20561;-78
2023/11/22 03:04:48;;;;;;;19.65;12.02;;;3.40;99.90;;;;;;5010670;28;20120;-78
2023/11/22 03:07:13;;;;;;;19.15;12.13;;;3.30;99.90;;;;;;5027817;28;20112;-78
2023/11/22 03:09:40;;;;;;;19.25;11.45;;;3.30;99.90;;;;;;5014462;28;20083;-78
2023/11/22 03:12:08;;;;;;;20.40;14.57;;;3.40;99.90;;;;;;5028554;28;20044;-78
2023/11/22 03:14:34;;;;;;;20.92;11.73;;;3.40;99.90;;;;;;5014431;28;20086;-78
2023/11/22 03:17:00;;;;;;;20.90;12.10;;;3.40;99.90;;;;;;5046944;28;20468;-78
2023/11/22 03:19:25;;;;;;;20.77;13.98;;;3.50;99.90;;;;;;5048047;28;20044;-78
2023/11/22 03:21:51;;;;;;;18.70;12.50;;;3.50;99.90;;;;;;5030061;28;20029;-78
2023/11/22 03:24:16;;;;;;;17.52;11.43;;;3.50;99.90;;;;;;5014828;28;20032;-79
2023/11/22 03:26:42;;;;;;;18.55;12.52;;;3.50;99.90;;;;;;5045937;28;20033;-79
2023/11/22 03:29:07;;;;;;;16.00;11.50;;;3.40;99.90;;;;;;5048295;28;20106;-78
2023/11/22 03:31:33;;;;;;;17.52;11.55;;;3.40;99.90;;;;;;5045425;28;20024;-78
2023/11/22 03:33:58;;;;;;;18.02;11.23;;;3.40;99.90;;;;;;5048927;28;20029;-78
2023/11/22 03:36:24;;;;;;;19.23;11.15;;;3.30;99.90;;;;;;5015439;28;20094;-78
2023/11/22 03:38:50;;;;;;;17.48;10.35;;;3.30;99.90;;;;;;5030789;28;20782;-78
2023/11/22 03:41:19;;;;;;;17.83;10.82;;;3.20;99.90;;;;;;5030120;28;20044;-79
2023/11/22 03:43:44;;;;;;;15.80;10.07;;;3.20;99.90;;;;;;5032091;28;20128;-79
2023/11/22 03:46:11;;;;;;;14.77;9.75;;;3.20;99.90;;;;;;5049107;28;20115;-78
2023/11/22 03:48:37;;;;;;;13.80;9.40;;;3.10;99.90;;;;;;5043728;28;20033;-78
2023/11/22 03:51:02;;;;;;;17.50;10.45;;;3.10;99.90;;;;;;5028013;28;20059;-78
2023/11/22 03:53:28;;;;;;;15.10;9.63;;;2.90;99.90;;;;;;5031938;28;20072;-78
2023/11/22 03:55:54;;;;;;;16.17;9.25;;;2.90;99.90;;;;;;5012907;28;20033;-78
2023/11/22 03:58:19;;;;;;;16.70;10.27;;;2.90;99.90;;;;;;5031781;28;20063;-79
2023/11/22 04:00:45;;;;;;;15.52;10.10;;;2.80;99.90;;;;;;5028999;28;20032;-78
2023/11/22 04:03:11;;;;;;;15.88;8.80;;;2.80;99.90;;;;;;5032024;28;20044;-78
2023/11/22 04:05:36;;;;;;;15.55;9.40;;;2.60;99.90;;;;;;5032065;28;20033;-78
2023/11/22 04:08:02;;;;;;;13.57;8.57;;;2.70;99.90;;;;;;5028351;28;20542;-78
2023/11/22 04:10:27;;;;;;;14.10;8.98;;;2.70;99.90;;;;;;5032503;28;20041;-78
2023/11/22 04:12:53;;;;;;;14.27;8.82;;;2.50;99.90;;;;;;5013917;28;20071;-78
2023/11/22 04:15:18;;;;;;;20.38;9.43;;;2.50;99.90;;;;;;5014640;28;20037;-78
2023/11/22 04:17:44;;;;;;;14.18;7.97;;;2.40;99.90;;;;;;5029072;28;20036;-78
2023/11/22 04:20:10;;;;;;;15.48;9.52;;;2.40;99.90;;;;;;5043345;28;20028;-78
2023/11/22 04:22:36;;;;;;;13.65;8.73;;;2.30;99.90;;;;;;5015648;28;20568;-78
2023/11/22 04:25:02;;;;;;;13.68;8.85;;;2.30;99.90;;;;;;5013709;28;20451;-78
2023/11/22 04:27:28;;;;;;;13.45;8.43;;;2.30;99.90;;;;;;5027642;28;20039;-78
2023/11/22 04:29:54;;;;;;;14.90;8.93;;;2.30;99.90;;;;;;5028524;28;20022;-78
2023/11/22 04:32:21;;;;;;;13.13;8.18;;;2.20;99.90;;;;;;5023320;28;20032;-78
2023/11/22 04:34:47;;;;;;;16.30;7.88;;;2.20;99.90;;;;;;5016479;28;20595;-78
2023/11/22 04:37:13;;;;;;;12.50;7.55;;;2.20;99.90;;;;;;5028821;28;20116;-78
2023/11/22 04:39:38;;;;;;;12.13;7.68;;;2.10;99.90;;;;;;5033879;28;20492;-78
2023/11/22 04:42:04;;;;;;;11.40;7.25;;;2.10;99.90;;;;;;5032000;28;20407;-78
2023/11/22 04:44:30;;;;;;;13.98;7.85;;;2.00;99.90;;;;;;5030252;28;20496;-78
2023/11/22 04:46:55;;;;;;;11.88;7.25;;;2.00;99.90;;;;;;5028170;28;20037;-78
2023/11/22 04:49:21;;;;;;;13.70;7.80;;;2.00;99.90;;;;;;5024504;28;20028;-78
2023/11/22 04:51:46;;;;;;;16.20;7.35;;;2.00;99.90;;;;;;5027351;28;20028;-78
2023/11/22 04:54:12;;;;;;;11.45;7.50;;;2.00;99.90;;;;;;5024357;28;20037;-78
2023/11/22 04:56:37;;;;;;;12.65;7.25;;;1.90;99.90;;;;;;5026459;28;20037;-78
2023/11/22 04:59:03;;;;;;;10.93;7.05;;;1.80;99.90;;;;;;5027526;28;20186;-78
2023/11/22 05:01:32;;;;;;;11.95;7.60;;;1.80;99.90;;;;;;5033530;28;20072;-78
2023/11/22 05:03:58;;;;;;;12.98;7.68;;;1.90;99.90;;;;;;5047560;28;20059;-78
2023/11/22 05:06:24;;;;;;;13.25;7.88;;;1.90;99.90;;;;;;5029358;28;20123;-78
2023/11/22 05:08:50;;;;;;;13.30;7.90;;;1.90;99.90;;;;;;5013757;28;20025;-78
2023/11/22 05:11:15;;;;;;;14.18;7.88;;;1.80;99.90;;;;;;5044862;28;20126;-78
2023/11/22 05:13:42;;;;;;;11.52;7.72;;;1.80;99.90;;;;;;5013024;28;20381;-78
2023/11/22 05:16:08;;;;;;;12.13;7.00;;;1.80;99.90;;;;;;5030255;28;20625;-78
2023/11/22 05:18:35;;;;;;;13.48;7.40;;;1.70;99.90;;;;;;5011717;28;20029;-78
2023/11/22 05:21:03;;;;;;;11.75;6.75;;;1.70;99.90;;;;;;5029030;28;20041;-79
2023/11/22 05:23:29;;;;;;;11.48;6.78;;;1.70;99.90;;;;;;5044760;28;20389;-79
2023/11/22 05:25:55;;;;;;;11.10;6.70;;;1.60;99.90;;;;;;5041474;28;20035;-79
2023/11/22 05:28:22;;;;;;;13.93;6.80;;;1.60;99.90;;;;;;5029074;28;20054;-79
2023/11/22 05:30:47;;;;;;;12.90;7.32;;;1.50;99.90;;;;;;5010278;28;20060;-79
2023/11/22 05:33:13;;;;;;;15.07;6.97;;;1.50;99.90;;;;;;5044376;28;20060;-79
2023/11/22 05:35:39;;;;;;;11.68;7.45;;;1.50;99.90;;;;;;5014337;28;20047;-79
2023/11/22 05:38:05;;;;;;;14.23;7.55;;;1.50;99.90;;;;;;5026771;28;20510;-80
2023/11/22 05:40:30;;;;;;;13.88;7.65;;;1.40;99.90;;;;;;5028281;28;22262;-79
2023/11/22 05:42:56;;;;;;;15.07;7.55;;;1.40;99.90;;;;;;5027529;28;20401;-79
2023/11/22 05:45:23;;;;;;;14.02;8.30;;;1.40;99.90;;;;;;5028747;28;20035;-79
2023/11/22 05:47:49;;;;;;;12.65;7.82;;;1.30;99.90;;;;;;5042310;28;20722;-79
2023/11/22 05:50:14;;;;;;;14.05;6.93;;;1.30;99.90;;;;;;5028606;28;20032;-79
2023/11/22 05:52:40;;;;;;;14.35;7.63;;;1.40;99.90;;;;;;5012736;28;20025;-79
2023/11/22 05:55:08;;;;;;;14.10;7.05;;;1.40;99.90;;;;;;5028788;28;20453;-79
2023/11/22 05:57:33;;;;;;;13.05;7.65;;;1.30;99.90;;;;;;5009634;28;20048;-79
2023/11/22 05:59:59;;;;;;;11.23;6.85;;;1.30;99.90;;;;;;5027651;28;20037;-79
2023/11/22 06:02:25;;;;;;;10.32;7.18;;;1.10;99.90;;;;;;5022817;28;20485;-79
2023/11/22 06:04:50;;;;;;;13.73;7.63;;;1.20;99.90;;;;;;5026141;28;20116;-79
2023/11/22 06:07:16;;;;;;;13.30;6.80;;;1.20;99.90;;;;;;5014520;28;20044;-79
2023/11/22 06:09:41;;;;;;;15.00;6.53;;;1.10;99.90;;;;;;5027562;28;20037;-79
2023/11/22 06:12:07;;;;;;;12.50;7.10;;;1.20;99.90;;;;;;5025301;28;20232;-79
2023/11/22 06:14:32;;;;;;;13.07;6.90;;;1.10;99.90;;;;;;5028237;28;20113;-80
2023/11/22 06:16:58;;;;;;;14.85;7.88;;;1.10;99.90;;;;;;5027281;28;20098;-79
2023/11/22 06:19:23;;;;;;;12.73;6.88;;;0.90;99.90;;;;;;5027499;28;20474;-79
2023/11/22 06:21:49;;;;;;;13.55;7.90;;;0.90;99.90;;;;;;5012828;28;20615;-79
2023/11/22 06:24:18;;;;;;;15.88;6.88;;;0.90;99.90;;;;;;5040136;28;20033;-79
2023/11/22 06:26:45;;;;;;;16.40;7.78;;;0.90;99.90;;;;;;5044170;28;20041;-79
2023/11/22 06:29:11;;;;;;;12.07;6.63;;;0.80;99.90;;;;;;5029685;28;20029;-79
2023/11/22 06:31:37;;;;;;;12.82;7.22;;;0.70;99.90;;;;;;5043389;28;20643;-79
2023/11/22 06:34:05;;;;;;;11.15;6.70;;;0.70;99.90;;;;;;5043881;28;20045;-79
2023/11/22 06:36:30;;;;;;;10.90;6.60;;;0.60;99.90;;;;;;5027543;28;20496;-79
2023/11/22 06:38:58;;;;;;;11.90;7.22;;;0.60;99.90;;;;;;5026210;28;20040;-79
2023/11/22 06:41:24;;;;;;;12.82;7.65;;;0.70;99.90;;;;;;5048999;28;20037;-79
2023/11/22 06:43:49;;;;;;;12.73;6.93;;;0.80;99.90;;;;;;5029552;28;20094;-79
2023/11/22 06:46:16;;;;;;;15.00;8.30;;;0.80;99.90;;;;;;5044875;28;20060;-79
2023/11/22 06:48:43;;;;;;;14.65;7.10;;;0.70;99.90;;;;;;5030999;28;20485;-79
2023/11/22 06:51:09;;;;;;;16.77;7.60;;;0.80;99.90;;;;;;5034128;28;20072;-79
2023/11/22 06:53:35;;;;;;;14.18;7.28;;;0.70;99.90;;;;;;5025588;28;20041;-79
2023/11/22 06:56:01;;;;;;;13.40;7.78;;;0.80;99.90;;;;;;5031503;28;20031;-77
2023/11/22 06:58:26;;;;;;;12.38;7.13;;;0.80;99.90;;;;;;5040500;28;20112;-78
2023/11/22 07:00:52;;;;;;;13.85;7.50;;;0.80;99.90;;;;;;5031852;28;20048;-78
2023/11/22 07:03:18;;;;;;;11.48;7.18;;;0.80;99.90;;;;;;5031179;28;20975;-78
2023/11/22 07:05:43;;;;;;;15.45;8.20;;;0.80;99.90;;;;;;5030211;28;20377;-78
2023/11/22 07:08:10;;;;;;;12.75;7.50;;;0.80;99.90;;;;;;5020640;28;20488;-78
2023/11/22 07:10:36;;;;;;;18.35;8.20;;;0.80;99.90;;;;;;5027621;28;20091;-77
2023/11/22 07:13:02;;;;;;;14.27;8.25;;;0.80;99.90;;;;;;5034342;28;20037;-77
2023/11/22 07:15:28;;;;;;;14.40;7.38;;;0.70;99.90;;;;;;5036316;28;20060;-77
2023/11/22 07:17:54;;;;;;;13.75;7.60;;;0.70;99.90;;;;;;5012519;28;20410;-78
2023/11/22 07:20:20;;;;;;;13.23;7.65;;;0.70;99.90;;;;;;5046600;28;20091;-78
2023/11/22 07:22:45;;;;;;;14.40;8.07;;;0.70;99.90;;;;;;5029747;28;20439;-77
2023/11/22 07:25:24;;;;;;;16.77;7.75;;;0.60;99.90;;;;;;5031061;28;20473;-78
2023/11/22 07:27:56;;;;;;;14.10;8.02;;;0.50;99.90;;;;;;5023622;28;20033;-77
2023/11/22 07:30:27;;;;;;;14.10;8.35;;;0.60;99.90;;;;;;5047374;28;20793;-78
2023/11/22 07:32:53;;;;;;;13.45;7.88;;;0.60;99.90;;;;;;5032515;28;20033;-78
2023/11/22 07:35:19;;;;;;;16.95;8.02;;;0.50;99.90;;;;;;5045375;28;20032;-78
2023/11/22 07:37:46;;;;;;;18.95;7.45;;;0.50;99.90;;;;;;5033297;28;20944;-78
2023/11/22 07:40:13;;;;;;;17.52;7.80;;;0.60;99.90;;;;;;5030399;28;20037;-78
2023/11/22 07:42:39;;;;;;;14.18;7.65;;;0.60;99.90;;;;;;4996118;28;20029;-78
2023/11/22 07:45:06;;;;;;;13.05;7.95;;;0.70;99.90;;;;;;5042627;28;20037;-78
2023/11/22 07:47:31;;;;;;;15.48;8.82;;;0.90;99.90;;;;;;5036428;28;20022;-78
2023/11/22 07:49:57;;;;;;;11.68;6.47;;;0.90;99.90;;;;;;5022293;28;20434;-78
2023/11/22 07:52:29;;;;;;;17.95;8.23;;;1.20;99.90;;;;;;5031061;28;20033;-78
2023/11/22 07:54:57;;;;;;;13.18;7.65;;;1.30;99.90;;;;;;5023936;28;20404;-78
2023/11/22 07:57:23;;;;;;;10.23;6.32;;;1.50;99.90;;;;;;5026096;28;20812;-78
2023/11/22 07:59:59;;;;;;;11.38;6.57;;;1.60;99.90;;;;;;5017047;28;20028;-78
2023/11/22 08:02:26;;;;;;;11.57;7.28;;;1.60;99.90;;;;;;5034217;28;20032;-78
2023/11/22 08:04:52;;;;;;;9.77;6.65;;;1.70;99.90;;;;;;5043015;28;20525;-78
2023/11/22 08:07:18;;;;;;;13.75;6.80;;;1.80;99.90;;;;;;5036047;28;20033;-78
2023/11/22 08:09:44;;;;;;;14.65;6.85;;;1.90;99.90;;;;;;4992473;28;20382;-78
2023/11/22 08:12:11;;;;;;;12.73;7.18;;;1.90;99.90;;;;;;5009955;28;21336;-78
2023/11/22 08:14:37;;;;;;;13.38;7.32;;;2.10;99.90;;;;;;5021995;28;20104;-78
2023/11/22 08:17:05;;;;;;;16.30;5.95;;;2.20;99.90;;;;;;5042387;28;20029;-78
2023/11/22 08:19:31;;;;;;;13.57;7.78;;;2.20;99.90;;;;;;5029311;28;20047;-78
2023/11/22 08:21:57;;;;;;;11.88;6.03;;;2.20;99.90;;;;;;5038418;28;20026;-78
2023/11/22 08:24:22;;;;;;;21.08;8.23;;;2.20;99.90;;;;;;5045408;28;20033;-78
2023/11/22 08:26:48;;;;;;;11.38;6.38;;;2.10;99.90;;;;;;5023845;28;20376;-78
2023/11/22 08:29:15;;;;;;;12.90;7.88;;;2.20;99.90;;;;;;5026430;28;20087;-78
2023/11/22 08:31:41;;;;;;;12.30;7.68;;;2.20;99.90;;;;;;5015605;28;20032;-78
2023/11/22 08:34:07;;;;;;;14.38;8.02;;;2.30;99.90;;;;;;5015521;28;20047;-78
2023/11/22 08:36:34;;;;;;;13.13;6.72;;;2.40;99.90;;;;;;5029881;28;20512;-78
2023/11/22 08:39:03;;;;;;;17.20;9.45;;;2.50;99.90;;;;;;5026976;28;20559;-78
2023/11/22 08:41:29;;;;;;;17.17;8.52;;;2.60;99.90;;;;;;5011536;28;20549;-78
2023/11/22 08:43:55;;;;;;;14.73;9.05;;;2.80;99.90;;;;;;5046902;28;20108;-78
2023/11/22 08:46:21;;;;;;;10.48;7.20;;;2.90;99.90;;;;;;5029554;28;20736;-78
2023/11/22 08:48:47;;;;;;;12.65;7.65;;;3.00;99.90;;;;;;4995772;28;20041;-78
2023/11/22 08:51:12;;;;;;;15.35;8.32;;;3.10;99.90;;;;;;5022427;28;20507;-78
2023/11/22 08:53:38;;;;;;;16.98;8.68;;;2.80;99.90;;;;;;5011887;28;20033;-78
2023/11/22 08:56:05;;;;;;;14.05;9.05;;;2.50;99.90;;;;;;5018886;28;20071;-78
2023/11/22 08:58:31;;;;;;;14.65;7.45;;;2.80;99.90;;;;;;5009927;28;20124;-78
2023/11/22 09:00:57;;;;;;;14.77;7.45;;;3.10;99.90;;;;;;5028361;28;20166;-78
2023/11/22 09:03:24;;;;;;;13.50;7.85;;;3.30;99.90;;;;;;5023200;28;20373;-79
2023/11/22 09:05:49;;;;;;;8.88;5.70;;;3.40;99.90;;;;;;5011679;28;20090;-79
2023/11/22 09:08:15;;;;;;;9.48;6.43;;;3.60;99.90;;;;;;5016239;28;20500;-79
2023/11/22 09:10:41;;;;;;;15.23;8.45;;;3.80;99.90;;;;;;5031903;28;20043;-79
2023/11/22 09:13:08;;;;;;;9.13;5.55;;;3.90;99.90;;;;;;5047453;28;20116;-78
2023/11/22 09:15:35;;;;;;;12.50;6.50;;;4.10;99.90;;;;;;5029263;28;20554;-78
2023/11/22 09:18:01;;;;;;;9.15;5.45;;;4.30;99.90;;;;;;5020164;28;20016;-78
2023/11/22 09:20:29;;;;;;;9.50;6.35;;;4.40;99.90;;;;;;5028554;28;20445;-79
2023/11/22 09:22:55;;;;;;;11.52;7.68;;;4.60;99.90;;;;;;5028524;28;20048;-79
2023/11/22 09:25:21;;;;;;;11.43;6.78;;;4.60;99.90;;;;;;5027091;28;20210;-78
2023/11/22 09:27:49;;;;;;;11.30;6.43;;;5.00;99.90;;;;;;5028317;28;20028;-78
2023/11/22 09:30:31;;;;;;;12.10;6.88;;;4.80;99.90;;;;;;5012220;28;20029;-79
2023/11/22 09:33:03;;;;;;;11.45;6.85;;;4.90;99.90;;;;;;5038261;28;20064;-79
2023/11/22 09:35:29;;;;;;;12.65;7.10;;;4.80;99.90;;;;;;5043750;28;20048;-79
2023/11/22 09:37:55;;;;;;;12.98;7.53;;;5.00;99.90;;;;;;5034422;28;20036;-78
2023/11/22 09:40:22;;;;;;;9.80;6.30;;;5.00;99.90;;;;;;5021796;28;20033;-78
2023/11/22 09:42:51;;;;;;;10.68;6.47;;;5.20;99.90;;;;;;5027157;28;20139;-78
2023/11/22 09:45:18;;;;;;;11.30;6.45;;;5.20;99.90;;;;;;5029498;28;20477;-78
2023/11/22 09:47:44;;;;;;;7.85;5.15;;;5.20;99.90;;;;;;5012798;28;20078;-78
2023/11/22 09:50:10;;;;;;;12.77;6.47;;;5.20;99.90;;;;;;5023103;28;20551;-79
2023/11/22 09:52:36;;;;;;;9.50;5.85;;;5.20;99.90;;;;;;5043768;28;22787;-79
2023/11/22 09:55:02;;;;;;;7.88;5.45;;;5.20;99.90;;;;;;5027992;28;20025;-79
2023/11/22 09:57:29;;;;;;;7.28;4.75;;;5.20;99.90;;;;;;5041706;28;20037;-79
2023/11/22 09:59:55;;;;;;;10.93;6.10;;;5.50;99.90;;;;;;5027873;28;20021;-80
2023/11/22 10:02:26;;;;;;;9.32;5.75;;;5.50;99.90;;;;;;5043191;28;20439;-79
2023/11/22 10:04:52;;;;;;;9.00;5.20;;;5.30;99.90;;;;;;5027365;28;20075;-79
2023/11/22 10:07:18;;;;;;;11.25;6.05;;;5.40;99.90;;;;;;5015483;28;20511;-78
2023/11/22 10:09:43;;;;;;;7.55;4.88;;;5.50;99.90;;;;;;5044969;28;20060;-80
2023/11/22 10:12:09;;;;;;;9.20;4.80;;;5.70;99.90;;;;;;5045092;28;20056;-80
2023/11/22 10:14:35;;;;;;;7.30;5.28;;;5.80;99.90;;;;;;5014092;28;20044;-80
2023/11/22 10:17:00;;;;;;;6.63;4.47;;;5.80;99.90;;;;;;5028793;28;20399;-80
2023/11/22 10:19:27;;;;;;;8.63;4.20;;;5.90;99.90;;;;;;5023805;28;20033;-80
2023/11/22 10:22:06;;;;;;;9.93;5.10;;;6.00;99.90;;;;;;5013442;28;20040;-80
2023/11/22 10:24:35;;;;;;;6.80;4.07;;;5.90;99.90;;;;;;5014921;28;20131;-80
2023/11/22 10:27:01;;;;;;;7.22;4.93;;;5.90;99.90;;;;;;5015419;28;20110;-80
2023/11/22 10:29:27;;;;;;;6.65;4.55;;;6.00;99.90;;;;;;5012043;28;20411;-80
2023/11/22 10:31:53;;;;;;;5.55;3.97;;;6.00;99.90;;;;;;5029064;28;20029;-81
2023/11/22 10:34:22;;;;;;;7.57;4.05;;;5.90;99.90;;;;;;5028040;28;20488;-80
2023/11/22 10:36:48;;;;;;;7.45;3.58;;;5.90;99.90;;;;;;5015561;28;20120;-80
2023/11/22 10:39:16;;;;;;;5.32;3.90;;;6.00;99.90;;;;;;5029431;28;20112;-80
2023/11/22 10:41:43;;;;;;;7.78;2.97;;;6.00;99.90;;;;;;5011690;28;20389;-80
2023/11/22 10:44:09;;;;;;;5.10;3.63;;;5.90;99.90;;;;;;5045996;28;20033;-79
2023/11/22 10:46:35;;;;;;;6.97;3.63;;;6.00;99.90;;;;;;5012857;28;20052;-80
2023/11/22 10:49:00;;;;;;;5.65;3.45;;;6.20;99.90;;;;;;5030167;28;20563;-80
2023/11/22 10:51:33;;;;;;;8.32;3.65;;;6.30;99.90;;;;;;5026937;28;20184;-80
2023/11/22 10:54:01;;;;;;;7.38;4.22;;;6.20;99.90;;;;;;5039195;28;20059;-80
2023/11/22 10:56:28;;;;;;;5.15;3.45;;;6.30;99.90;;;;;;5027122;28;20049;-80
2023/11/22 10:58:59;;;;;;;6.28;3.38;;;6.30;99.90;;;;;;5028769;28;20515;-80
2023/11/22 11:01:30;;;;;;;5.55;3.97;;;6.40;99.90;;;;;;5038540;28;20448;-80
2023/11/22 11:04:06;;;;;;;4.22;2.92;;;6.20;99.90;;;;;;5027342;28;20512;-80
2023/11/22 11:06:33;;;;;;;6.63;2.83;;;6.50;99.90;;;;;;5028748;28;20041;-80
2023/11/22 11:09:15;;;;;;;6.88;3.75;;;7.00;99.90;;;;;;5024894;28;20486;-80
2023/11/22 11:11:42;;;;;;;6.00;4.03;;;7.10;99.90;;;;;;4336430;28;10000461;-80
2023/11/22 11:14:09;;;;;;;8.23;4.05;;;6.90;99.90;;;;;;5025954;28;20033;-79
2023/11/22 11:16:37;;;;;;;9.70;4.20;;;7.00;99.90;;;;;;5038190;28;20124;-79
2023/11/22 11:19:03;;;;;;;5.05;3.30;;;7.20;99.90;;;;;;5008617;28;20048;-78
2023/11/22 11:21:29;;;;;;;7.40;3.50;;;7.20;99.90;;;;;;5027119;28;20032;-79
2023/11/22 11:23:57;;;;;;;9.52;4.82;;;7.40;99.90;;;;;;5039258;28;20063;-79
2023/11/22 11:26:23;;;;;;;5.13;3.60;;;7.40;99.90;;;;;;5025612;28;20036;-80
2023/11/22 11:28:51;;;;;;;10.10;4.43;;;7.30;99.90;;;;;;5024090;28;20045;-80
2023/11/22 11:31:16;;;;;;;8.20;4.38;;;7.40;99.90;;;;;;5011060;28;20094;-80
2023/11/22 11:33:48;;;;;;;6.30;3.92;;;7.30;99.90;;;;;;5036774;28;20037;-80
2023/11/22 11:36:31;;;;;;;6.53;4.10;;;7.20;99.90;;;;;;5049328;28;20052;-79
2023/11/22 11:39:03;;;;;;;4.85;3.25;;;7.20;99.90;;;;;;5045757;28;20457;-80
2023/11/22 11:41:32;;;;;;;7.85;4.03;;;7.10;99.90;;;;;;5052182;28;20098;-80
2023/11/22 11:43:58;;;;;;;9.75;4.93;;;7.30;99.90;;;;;;5017139;28;20045;-82
2023/11/22 11:46:25;;;;;;;7.72;4.70;;;7.30;99.90;;;;;;5047362;28;20073;-81
2023/11/22 11:48:51;;;;;;;8.07;4.10;;;7.30;99.90;;;;;;5046703;28;20063;-82
2023/11/22 11:51:24;;;;;;;7.78;4.00;;;7.10;99.90;;;;;;5014045;28;20043;-79
2023/11/22 11:53:50;;;;;;;4.85;3.28;;;7.20;99.90;;;;;;5045039;28;20067;-79
2023/11/22 11:56:15;;;;;;;8.48;3.90;;;7.20;99.90;;;;;;5029539;28;20069;-79
2023/11/22 11:58:42;;;;;;;5.75;3.25;;;7.50;99.90;;;;;;5012590;28;20373;-78
2023/11/22 12:01:08;;;;;;;4.85;2.92;;;7.60;99.90;;;;;;5014459;28;20797;-79
2023/11/22 12:03:36;;;;;;;7.90;3.95;;;7.50;99.90;;;;;;5027687;28;20132;-78
2023/11/22 12:06:01;;;;;;;7.53;3.35;;;7.40;99.90;;;;;;5026142;28;20512;-78
2023/11/22 12:08:30;;;;;;;6.25;3.50;;;7.50;99.90;;;;;;5031282;28;20033;-78
2023/11/22 12:10:56;;;;;;;7.95;3.88;;;7.90;99.90;;;;;;5015344;28;20072;-78
2023/11/22 12:13:22;;;;;;;6.85;3.08;;;8.00;99.90;;;;;;5028409;28;20032;-79
2023/11/22 12:15:47;;;;;;;6.30;3.55;;;8.10;99.90;;;;;;5013115;28;20417;-79
2023/11/22 12:18:13;;;;;;;5.45;3.15;;;7.90;99.90;;;;;;5013616;28;20370;-79
2023/11/22 12:20:40;;;;;;;4.22;2.97;;;7.80;99.90;;;;;;5045793;28;20036;-79
2023/11/22 12:23:06;;;;;;;5.20;2.92;;;7.80;99.90;;;;;;5012118;28;20060;-79
2023/11/22 12:25:32;;;;;;;5.40;2.80;;;8.00;99.90;;;;;;5028692;28;20487;-80
2023/11/22 12:27:57;;;;;;;4.28;3.25;;;8.00;99.90;;;;;;5013711;28;20036;-79
2023/11/22 12:30:36;;;;;;;5.97;4.20;;;8.20;99.90;;;;;;5029316;28;20025;-78
2023/11/22 12:33:05;;;;;;;4.40;3.30;;;7.90;99.90;;;;;;5029913;28;20535;-78
2023/11/22 12:35:32;;;;;;;5.90;2.95;;;8.10;99.90;;;;;;5011355;28;20033;-78
2023/11/22 12:37:59;;;;;;;7.22;3.97;;;8.00;99.90;;;;;;5043228;28;20842;-78
2023/11/22 12:40:24;;;;;;;4.47;3.40;;;8.10;99.90;;;;;;5027219;28;20410;-78
2023/11/22 12:42:50;;;;;;;5.30;3.28;;;8.20;99.90;;;;;;5028133;28;20036;-78
2023/11/22 12:45:23;;;;;;;5.50;3.00;;;8.10;99.90;;;;;;5026848;28;20043;-78